sensor_id;sensor_type;location;lat;lon;timestamp;P1;durP1;ratioP1;P2;durP2;ratioP2
75021;SDS011;63583;49.976;20.182;2024-02-14T00:01:34;12.63;;;6.38;;
75021;SDS011;63583;49.976;20.182;2024-02-14T00:04:03;15.68;;;6.82;;
75021;SDS011;63583;49.976;20.182;2024-02-14T00:06:29;13.20;;;6.50;;
75021;SDS011;63583;49.976;20.182;2024-02-14T00:08:55;13.77;;;6.28;;
75021;SDS011;63583;49.976;20.182;2024-02-14T00:11:20;14.93;;;7.07;;
75021;SDS011;63583;49.976;20.182;2024-02-14T00:13:46;14.38;;;6.97;;
75021;SDS011;63583;49.976;20.182;2024-02-14T00:16:12;15.07;;;6.70;;
75021;SDS011;63583;49.976;20.182;2024-02-14T00:18:38;11.45;;;6.43;;
75021;SDS011;63583;49.976;20.182;2024-02-14T00:21:03;16.73;;;7.93;;
75021;SDS011;63583;49.976;20.182;2024-02-14T00:23:29;15.48;;;7.65;;
75021;SDS011;63583;49.976;20.182;2024-02-14T00:25:55;14.38;;;8.38;;
75021;SDS011;63583;49.976;20.182;2024-02-14T00:28:22;15.70;;;8.65;;
75021;SDS011;63583;49.976;20.182;2024-02-14T00:30:49;14.38;;;8.15;;
75021;SDS011;63583;49.976;20.182;2024-02-14T00:33:15;17.60;;;9.13;;
75021;SDS011;63583;49.976;20.182;2024-02-14T00:35:41;13.57;;;8.27;;
75021;SDS011;63583;49.976;20.182;2024-02-14T00:38:07;16.20;;;9.82;;
75021;SDS011;63583;49.976;20.182;2024-02-14T00:40:33;18.70;;;9.98;;
75021;SDS011;63583;49.976;20.182;2024-02-14T00:42:59;19.80;;;10.38;;
75021;SDS011;63583;49.976;20.182;2024-02-14T00:45:24;19.45;;;10.15;;
75021;SDS011;63583;49.976;20.182;2024-02-14T00:47:50;21.80;;;10.27;;
75021;SDS011;63583;49.976;20.182;2024-02-14T00:50:16;19.60;;;10.30;;
75021;SDS011;63583;49.976;20.182;2024-02-14T00:52:42;19.95;;;10.85;;
75021;SDS011;63583;49.976;20.182;2024-02-14T00:55:08;20.42;;;10.27;;
75021;SDS011;63583;49.976;20.182;2024-02-14T00:57:34;18.80;;;9.95;;
75021;SDS011;63583;49.976;20.182;2024-02-14T01:00:00;21.75;;;11.07;;
75021;SDS011;63583;49.976;20.182;2024-02-14T01:02:26;19.20;;;9.70;;
75021;SDS011;63583;49.976;20.182;2024-02-14T01:04:52;18.23;;;10.15;;
75021;SDS011;63583;49.976;20.182;2024-02-14T01:07:18;18.73;;;10.30;;
75021;SDS011;63583;49.976;20.182;2024-02-14T01:09:43;21.10;;;10.10;;
75021;SDS011;63583;49.976;20.182;2024-02-14T01:12:09;19.52;;;9.35;;
75021;SDS011;63583;49.976;20.182;2024-02-14T01:14:35;21.98;;;9.80;;
75021;SDS011;63583;49.976;20.182;2024-02-14T01:17:01;19.35;;;9.70;;
75021;SDS011;63583;49.976;20.182;2024-02-14T01:19:29;21.35;;;9.88;;
75021;SDS011;63583;49.976;20.182;2024-02-14T01:21:55;22.30;;;9.93;;
75021;SDS011;63583;49.976;20.182;2024-02-14T01:24:22;18.65;;;9.85;;
75021;SDS011;63583;49.976;20.182;2024-02-14T01:26:52;24.05;;;10.60;;
75021;SDS011;63583;49.976;20.182;2024-02-14T01:29:20;19.17;;;10.40;;
75021;SDS011;63583;49.976;20.182;2024-02-14T01:31:46;20.63;;;10.55;;
75021;SDS011;63583;49.976;20.182;2024-02-14T01:34:12;21.05;;;10.18;;
75021;SDS011;63583;49.976;20.182;2024-02-14T01:36:38;21.13;;;11.30;;
75021;SDS011;63583;49.976;20.182;2024-02-14T01:39:04;20.83;;;10.30;;
75021;SDS011;63583;49.976;20.182;2024-02-14T01:41:44;22.13;;;11.70;;
75021;SDS011;63583;49.976;20.182;2024-02-14T01:44:16;23.85;;;11.68;;
75021;SDS011;63583;49.976;20.182;2024-02-14T01:46:43;24.30;;;11.45;;
75021;SDS011;63583;49.976;20.182;2024-02-14T01:49:12;22.40;;;11.32;;
75021;SDS011;63583;49.976;20.182;2024-02-14T01:51:42;24.90;;;11.77;;
75021;SDS011;63583;49.976;20.182;2024-02-14T01:54:10;24.70;;;12.73;;
75021;SDS011;63583;49.976;20.182;2024-02-14T01:56:38;24.17;;;11.55;;
75021;SDS011;63583;49.976;20.182;2024-02-14T01:59:04;22.90;;;12.30;;
75021;SDS011;63583;49.976;20.182;2024-02-14T02:01:31;20.95;;;12.77;;
75021;SDS011;63583;49.976;20.182;2024-02-14T02:03:58;22.33;;;11.50;;
75021;SDS011;63583;49.976;20.182;2024-02-14T02:06:25;25.23;;;12.40;;
75021;SDS011;63583;49.976;20.182;2024-02-14T02:08:51;26.38;;;11.07;;
75021;SDS011;63583;49.976;20.182;2024-02-14T02:11:17;23.90;;;12.50;;
75021;SDS011;63583;49.976;20.182;2024-02-14T02:13:44;24.17;;;12.23;;
75021;SDS011;63583;49.976;20.182;2024-02-14T02:16:10;21.13;;;11.20;;
75021;SDS011;63583;49.976;20.182;2024-02-14T02:18:36;23.85;;;12.07;;
75021;SDS011;63583;49.976;20.182;2024-02-14T02:21:02;24.33;;;11.70;;
75021;SDS011;63583;49.976;20.182;2024-02-14T02:23:35;26.35;;;12.05;;
75021;SDS011;63583;49.976;20.182;2024-02-14T02:26:01;22.90;;;11.57;;
75021;SDS011;63583;49.976;20.182;2024-02-14T02:28:27;24.42;;;12.45;;
75021;SDS011;63583;49.976;20.182;2024-02-14T02:30:53;22.40;;;11.77;;
75021;SDS011;63583;49.976;20.182;2024-02-14T02:33:20;23.33;;;11.60;;
75021;SDS011;63583;49.976;20.182;2024-02-14T02:35:47;21.55;;;12.10;;
75021;SDS011;63583;49.976;20.182;2024-02-14T02:38:15;24.38;;;12.13;;
75021;SDS011;63583;49.976;20.182;2024-02-14T02:40:43;18.92;;;10.77;;
75021;SDS011;63583;49.976;20.182;2024-02-14T02:43:09;26.02;;;12.48;;
75021;SDS011;63583;49.976;20.182;2024-02-14T02:45:36;23.38;;;11.75;;
75021;SDS011;63583;49.976;20.182;2024-02-14T02:48:01;23.02;;;11.45;;
75021;SDS011;63583;49.976;20.182;2024-02-14T02:50:28;25.15;;;12.07;;
75021;SDS011;63583;49.976;20.182;2024-02-14T02:52:55;20.83;;;11.55;;
75021;SDS011;63583;49.976;20.182;2024-02-14T02:55:22;20.63;;;11.63;;
75021;SDS011;63583;49.976;20.182;2024-02-14T02:57:48;24.30;;;11.40;;
75021;SDS011;63583;49.976;20.182;2024-02-14T03:00:15;24.65;;;11.93;;
75021;SDS011;63583;49.976;20.182;2024-02-14T03:02:41;22.50;;;12.07;;
75021;SDS011;63583;49.976;20.182;2024-02-14T03:05:10;21.13;;;11.45;;
75021;SDS011;63583;49.976;20.182;2024-02-14T03:07:46;20.10;;;10.80;;
75021;SDS011;63583;49.976;20.182;2024-02-14T03:10:13;25.38;;;12.10;;
75021;SDS011;63583;49.976;20.182;2024-02-14T03:12:40;24.73;;;11.98;;
75021;SDS011;63583;49.976;20.182;2024-02-14T03:15:05;21.65;;;11.15;;
75021;SDS011;63583;49.976;20.182;2024-02-14T03:17:35;25.48;;;11.02;;
75021;SDS011;63583;49.976;20.182;2024-02-14T03:20:01;27.75;;;11.82;;
75021;SDS011;63583;49.976;20.182;2024-02-14T03:22:27;24.58;;;10.85;;
75021;SDS011;63583;49.976;20.182;2024-02-14T03:24:53;26.27;;;11.93;;
75021;SDS011;63583;49.976;20.182;2024-02-14T03:27:19;22.38;;;11.88;;
75021;SDS011;63583;49.976;20.182;2024-02-14T03:29:44;23.05;;;11.15;;
75021;SDS011;63583;49.976;20.182;2024-02-14T03:32:12;19.75;;;11.05;;
75021;SDS011;63583;49.976;20.182;2024-02-14T03:34:38;24.90;;;11.80;;
75021;SDS011;63583;49.976;20.182;2024-02-14T03:37:04;23.08;;;10.70;;
75021;SDS011;63583;49.976;20.182;2024-02-14T03:39:32;20.42;;;10.85;;
75021;SDS011;63583;49.976;20.182;2024-02-14T03:41:59;20.65;;;9.27;;
75021;SDS011;63583;49.976;20.182;2024-02-14T03:44:28;22.27;;;10.98;;
75021;SDS011;63583;49.976;20.182;2024-02-14T03:46:54;18.05;;;8.80;;
75021;SDS011;63583;49.976;20.182;2024-02-14T03:49:19;20.88;;;9.30;;
75021;SDS011;63583;49.976;20.182;2024-02-14T03:51:45;18.30;;;9.32;;
75021;SDS011;63583;49.976;20.182;2024-02-14T03:54:11;20.15;;;9.00;;
75021;SDS011;63583;49.976;20.182;2024-02-14T03:56:37;20.42;;;10.57;;
75021;SDS011;63583;49.976;20.182;2024-02-14T03:59:03;22.38;;;11.00;;
75021;SDS011;63583;49.976;20.182;2024-02-14T04:01:31;17.52;;;10.00;;
75021;SDS011;63583;49.976;20.182;2024-02-14T04:03:57;19.33;;;10.38;;
75021;SDS011;63583;49.976;20.182;2024-02-14T04:06:22;20.40;;;9.93;;
75021;SDS011;63583;49.976;20.182;2024-02-14T04:08:49;26.60;;;11.02;;
75021;SDS011;63583;49.976;20.182;2024-02-14T04:11:15;20.45;;;9.95;;
75021;SDS011;63583;49.976;20.182;2024-02-14T04:13:41;24.45;;;10.02;;
75021;SDS011;63583;49.976;20.182;2024-02-14T04:16:07;16.75;;;9.65;;
75021;SDS011;63583;49.976;20.182;2024-02-14T04:18:32;24.70;;;9.13;;
75021;SDS011;63583;49.976;20.182;2024-02-14T04:20:58;20.60;;;10.32;;
75021;SDS011;63583;49.976;20.182;2024-02-14T04:23:24;19.95;;;9.20;;
75021;SDS011;63583;49.976;20.182;2024-02-14T04:25:51;16.42;;;8.18;;
75021;SDS011;63583;49.976;20.182;2024-02-14T04:28:16;15.27;;;7.10;;
75021;SDS011;63583;49.976;20.182;2024-02-14T04:30:42;18.67;;;7.60;;
75021;SDS011;63583;49.976;20.182;2024-02-14T04:33:08;13.43;;;6.93;;
75021;SDS011;63583;49.976;20.182;2024-02-14T04:35:35;15.57;;;7.60;;
75021;SDS011;63583;49.976;20.182;2024-02-14T04:38:00;16.17;;;6.70;;
75021;SDS011;63583;49.976;20.182;2024-02-14T04:40:26;15.70;;;6.93;;
75021;SDS011;63583;49.976;20.182;2024-02-14T04:42:52;12.13;;;6.13;;
75021;SDS011;63583;49.976;20.182;2024-02-14T04:45:18;14.43;;;6.90;;
75021;SDS011;63583;49.976;20.182;2024-02-14T04:47:43;16.58;;;6.90;;
75021;SDS011;63583;49.976;20.182;2024-02-14T04:50:10;12.25;;;6.30;;
75021;SDS011;63583;49.976;20.182;2024-02-14T04:52:35;11.15;;;6.25;;
75021;SDS011;63583;49.976;20.182;2024-02-14T04:55:02;13.60;;;6.63;;
75021;SDS011;63583;49.976;20.182;2024-02-14T04:57:29;14.20;;;5.88;;
75021;SDS011;63583;49.976;20.182;2024-02-14T04:59:54;14.85;;;6.70;;
75021;SDS011;63583;49.976;20.182;2024-02-14T05:02:20;10.27;;;5.10;;
75021;SDS011;63583;49.976;20.182;2024-02-14T05:04:46;10.98;;;5.82;;
75021;SDS011;63583;49.976;20.182;2024-02-14T05:07:12;13.32;;;5.90;;
75021;SDS011;63583;49.976;20.182;2024-02-14T05:09:38;15.50;;;6.35;;
75021;SDS011;63583;49.976;20.182;2024-02-14T05:12:03;12.57;;;6.47;;
75021;SDS011;63583;49.976;20.182;2024-02-14T05:14:30;11.05;;;5.68;;
75021;SDS011;63583;49.976;20.182;2024-02-14T05:16:56;11.27;;;5.60;;
75021;SDS011;63583;49.976;20.182;2024-02-14T05:19:22;11.02;;;5.30;;
75021;SDS011;63583;49.976;20.182;2024-02-14T05:21:48;11.70;;;4.93;;
75021;SDS011;63583;49.976;20.182;2024-02-14T05:24:14;10.77;;;5.32;;
75021;SDS011;63583;49.976;20.182;2024-02-14T05:26:41;11.02;;;5.45;;
75021;SDS011;63583;49.976;20.182;2024-02-14T05:29:07;17.25;;;8.52;;
75021;SDS011;63583;49.976;20.182;2024-02-14T05:31:45;12.32;;;6.30;;
75021;SDS011;63583;49.976;20.182;2024-02-14T05:34:12;15.00;;;6.68;;
75021;SDS011;63583;49.976;20.182;2024-02-14T05:36:38;13.15;;;6.93;;
75021;SDS011;63583;49.976;20.182;2024-02-14T05:39:04;15.05;;;7.40;;
75021;SDS011;63583;49.976;20.182;2024-02-14T05:41:31;17.05;;;7.45;;
75021;SDS011;63583;49.976;20.182;2024-02-14T05:43:58;12.30;;;7.20;;
75021;SDS011;63583;49.976;20.182;2024-02-14T05:46:24;12.52;;;7.30;;
75021;SDS011;63583;49.976;20.182;2024-02-14T05:48:51;15.10;;;6.63;;
75021;SDS011;63583;49.976;20.182;2024-02-14T05:51:18;15.93;;;7.00;;
75021;SDS011;63583;49.976;20.182;2024-02-14T05:53:44;16.02;;;7.15;;
75021;SDS011;63583;49.976;20.182;2024-02-14T05:56:10;16.85;;;7.75;;
75021;SDS011;63583;49.976;20.182;2024-02-14T05:58:36;13.40;;;7.32;;
75021;SDS011;63583;49.976;20.182;2024-02-14T06:01:01;18.05;;;7.60;;
75021;SDS011;63583;49.976;20.182;2024-02-14T06:03:27;13.63;;;7.00;;
75021;SDS011;63583;49.976;20.182;2024-02-14T06:05:54;14.93;;;7.45;;
75021;SDS011;63583;49.976;20.182;2024-02-14T06:08:20;16.85;;;7.38;;
75021;SDS011;63583;49.976;20.182;2024-02-14T06:10:46;17.05;;;7.97;;
75021;SDS011;63583;49.976;20.182;2024-02-14T06:13:13;15.40;;;7.82;;
75021;SDS011;63583;49.976;20.182;2024-02-14T06:15:39;15.85;;;8.57;;
75021;SDS011;63583;49.976;20.182;2024-02-14T06:18:05;21.58;;;10.30;;
75021;SDS011;63583;49.976;20.182;2024-02-14T06:20:30;29.75;;;12.25;;
75021;SDS011;63583;49.976;20.182;2024-02-14T06:22:56;23.58;;;12.35;;
75021;SDS011;63583;49.976;20.182;2024-02-14T06:25:22;31.73;;;14.75;;
75021;SDS011;63583;49.976;20.182;2024-02-14T06:27:48;20.50;;;10.07;;
75021;SDS011;63583;49.976;20.182;2024-02-14T06:30:13;17.42;;;8.77;;
75021;SDS011;63583;49.976;20.182;2024-02-14T06:32:40;15.43;;;7.40;;
75021;SDS011;63583;49.976;20.182;2024-02-14T06:35:05;15.88;;;7.75;;
75021;SDS011;63583;49.976;20.182;2024-02-14T06:37:31;15.20;;;8.00;;
75021;SDS011;63583;49.976;20.182;2024-02-14T06:39:57;16.23;;;8.13;;
75021;SDS011;63583;49.976;20.182;2024-02-14T06:42:23;14.45;;;7.88;;
75021;SDS011;63583;49.976;20.182;2024-02-14T06:44:49;15.57;;;7.03;;
75021;SDS011;63583;49.976;20.182;2024-02-14T06:47:15;15.52;;;7.25;;
75021;SDS011;63583;49.976;20.182;2024-02-14T06:49:40;18.73;;;8.25;;
75021;SDS011;63583;49.976;20.182;2024-02-14T06:52:06;16.38;;;8.18;;
75021;SDS011;63583;49.976;20.182;2024-02-14T06:54:32;17.02;;;7.78;;
75021;SDS011;63583;49.976;20.182;2024-02-14T06:56:58;18.45;;;8.88;;
75021;SDS011;63583;49.976;20.182;2024-02-14T06:59:25;16.50;;;7.47;;
75021;SDS011;63583;49.976;20.182;2024-02-14T07:01:51;12.95;;;7.20;;
75021;SDS011;63583;49.976;20.182;2024-02-14T07:04:20;17.77;;;9.45;;
75021;SDS011;63583;49.976;20.182;2024-02-14T07:06:54;20.50;;;9.13;;
75021;SDS011;63583;49.976;20.182;2024-02-14T07:09:19;20.02;;;9.48;;
75021;SDS011;63583;49.976;20.182;2024-02-14T07:11:46;21.13;;;9.75;;
75021;SDS011;63583;49.976;20.182;2024-02-14T07:14:11;19.05;;;9.75;;
75021;SDS011;63583;49.976;20.182;2024-02-14T07:16:37;15.10;;;8.02;;
75021;SDS011;63583;49.976;20.182;2024-02-14T07:19:03;11.00;;;5.63;;
75021;SDS011;63583;49.976;20.182;2024-02-14T07:21:29;14.18;;;6.00;;
75021;SDS011;63583;49.976;20.182;2024-02-14T07:23:55;12.18;;;6.43;;
75021;SDS011;63583;49.976;20.182;2024-02-14T07:26:21;10.63;;;5.72;;
75021;SDS011;63583;49.976;20.182;2024-02-14T07:28:46;14.73;;;6.65;;
75021;SDS011;63583;49.976;20.182;2024-02-14T07:31:12;14.05;;;6.40;;
75021;SDS011;63583;49.976;20.182;2024-02-14T07:33:38;13.38;;;6.32;;
75021;SDS011;63583;49.976;20.182;2024-02-14T07:36:04;10.73;;;6.30;;
75021;SDS011;63583;49.976;20.182;2024-02-14T07:38:30;11.60;;;5.80;;
75021;SDS011;63583;49.976;20.182;2024-02-14T07:40:56;9.85;;;5.47;;
75021;SDS011;63583;49.976;20.182;2024-02-14T07:43:22;11.80;;;5.68;;
75021;SDS011;63583;49.976;20.182;2024-02-14T07:45:48;12.35;;;6.25;;
75021;SDS011;63583;49.976;20.182;2024-02-14T07:48:14;14.68;;;6.65;;
75021;SDS011;63583;49.976;20.182;2024-02-14T07:50:40;11.02;;;5.63;;
75021;SDS011;63583;49.976;20.182;2024-02-14T07:53:05;9.95;;;4.88;;
75021;SDS011;63583;49.976;20.182;2024-02-14T07:55:31;13.23;;;5.97;;
75021;SDS011;63583;49.976;20.182;2024-02-14T07:57:57;9.32;;;4.88;;
75021;SDS011;63583;49.976;20.182;2024-02-14T08:00:25;6.75;;;3.92;;
75021;SDS011;63583;49.976;20.182;2024-02-14T08:02:51;7.43;;;4.30;;
75021;SDS011;63583;49.976;20.182;2024-02-14T08:05:17;7.53;;;4.95;;
75021;SDS011;63583;49.976;20.182;2024-02-14T08:07:46;9.35;;;5.18;;
75021;SDS011;63583;49.976;20.182;2024-02-14T08:10:12;9.40;;;5.63;;
75021;SDS011;63583;49.976;20.182;2024-02-14T08:12:38;9.52;;;5.22;;
75021;SDS011;63583;49.976;20.182;2024-02-14T08:15:04;9.68;;;5.53;;
75021;SDS011;63583;49.976;20.182;2024-02-14T08:17:32;10.02;;;4.93;;
75021;SDS011;63583;49.976;20.182;2024-02-14T08:22:29;8.15;;;4.80;;
75021;SDS011;63583;49.976;20.182;2024-02-14T08:24:55;7.93;;;4.15;;
75021;SDS011;63583;49.976;20.182;2024-02-14T08:27:21;6.47;;;3.60;;
75021;SDS011;63583;49.976;20.182;2024-02-14T08:29:49;6.80;;;2.40;;
75021;SDS011;63583;49.976;20.182;2024-02-14T08:32:14;5.80;;;2.40;;
75021;SDS011;63583;49.976;20.182;2024-02-14T08:34:41;3.53;;;1.60;;
75021;SDS011;63583;49.976;20.182;2024-02-14T08:37:06;3.95;;;1.50;;
75021;SDS011;63583;49.976;20.182;2024-02-14T08:39:34;3.55;;;1.50;;
75021;SDS011;63583;49.976;20.182;2024-02-14T08:42:00;4.32;;;2.40;;
75021;SDS011;63583;49.976;20.182;2024-02-14T08:44:33;2.97;;;1.50;;
75021;SDS011;63583;49.976;20.182;2024-02-14T08:47:00;5.40;;;2.20;;
75021;SDS011;63583;49.976;20.182;2024-02-14T08:49:26;3.55;;;1.80;;
75021;SDS011;63583;49.976;20.182;2024-02-14T08:51:53;4.15;;;1.45;;
75021;SDS011;63583;49.976;20.182;2024-02-14T08:54:19;5.85;;;1.90;;
75021;SDS011;63583;49.976;20.182;2024-02-14T08:56:46;2.83;;;1.48;;
75021;SDS011;63583;49.976;20.182;2024-02-14T08:59:12;4.10;;;1.98;;
75021;SDS011;63583;49.976;20.182;2024-02-14T09:01:38;3.83;;;1.63;;
75021;SDS011;63583;49.976;20.182;2024-02-14T09:04:06;2.83;;;1.52;;
75021;SDS011;63583;49.976;20.182;2024-02-14T09:06:32;5.03;;;2.20;;
75021;SDS011;63583;49.976;20.182;2024-02-14T09:08:58;4.13;;;2.10;;
75021;SDS011;63583;49.976;20.182;2024-02-14T09:11:24;4.53;;;1.90;;
75021;SDS011;63583;49.976;20.182;2024-02-14T09:13:51;4.28;;;1.67;;
75021;SDS011;63583;49.976;20.182;2024-02-14T09:16:21;4.10;;;1.90;;
75021;SDS011;63583;49.976;20.182;2024-02-14T09:18:48;3.63;;;1.75;;
75021;SDS011;63583;49.976;20.182;2024-02-14T09:21:14;2.83;;;1.52;;
75021;SDS011;63583;49.976;20.182;2024-02-14T09:23:41;3.95;;;1.80;;
75021;SDS011;63583;49.976;20.182;2024-02-14T09:26:07;4.30;;;2.10;;
75021;SDS011;63583;49.976;20.182;2024-02-14T09:28:34;4.20;;;1.50;;
75021;SDS011;63583;49.976;20.182;2024-02-14T09:31:00;3.80;;;1.90;;
75021;SDS011;63583;49.976;20.182;2024-02-14T09:33:29;2.80;;;1.67;;
75021;SDS011;63583;49.976;20.182;2024-02-14T09:35:55;2.72;;;1.60;;
75021;SDS011;63583;49.976;20.182;2024-02-14T09:38:21;3.13;;;1.50;;
75021;SDS011;63583;49.976;20.182;2024-02-14T09:40:48;4.60;;;1.67;;
75021;SDS011;63583;49.976;20.182;2024-02-14T09:43:29;2.95;;;1.80;;
75021;SDS011;63583;49.976;20.182;2024-02-14T09:46:00;3.58;;;1.83;;
75021;SDS011;63583;49.976;20.182;2024-02-14T09:48:29;5.57;;;2.10;;
75021;SDS011;63583;49.976;20.182;2024-02-14T09:50:55;5.22;;;1.90;;
75021;SDS011;63583;49.976;20.182;2024-02-14T09:53:22;4.28;;;1.70;;
75021;SDS011;63583;49.976;20.182;2024-02-14T09:55:48;3.75;;;1.58;;
75021;SDS011;63583;49.976;20.182;2024-02-14T09:58:15;5.00;;;2.00;;
75021;SDS011;63583;49.976;20.182;2024-02-14T10:00:42;4.25;;;1.60;;
75021;SDS011;63583;49.976;20.182;2024-02-14T10:03:08;4.30;;;1.80;;
75021;SDS011;63583;49.976;20.182;2024-02-14T10:05:35;4.22;;;1.90;;
75021;SDS011;63583;49.976;20.182;2024-02-14T10:08:01;2.38;;;1.35;;
75021;SDS011;63583;49.976;20.182;2024-02-14T10:10:27;2.90;;;1.65;;
75021;SDS011;63583;49.976;20.182;2024-02-14T10:12:56;4.15;;;1.88;;
75021;SDS011;63583;49.976;20.182;2024-02-14T10:15:22;3.95;;;1.67;;
75021;SDS011;63583;49.976;20.182;2024-02-14T10:17:48;2.47;;;1.60;;
75021;SDS011;63583;49.976;20.182;2024-02-14T10:20:16;4.18;;;1.58;;
75021;SDS011;63583;49.976;20.182;2024-02-14T10:22:43;3.60;;;1.73;;
75021;SDS011;63583;49.976;20.182;2024-02-14T10:25:10;3.75;;;1.60;;
75021;SDS011;63583;49.976;20.182;2024-02-14T10:27:37;3.88;;;1.50;;
75021;SDS011;63583;49.976;20.182;2024-02-14T10:30:07;3.95;;;1.52;;
75021;SDS011;63583;49.976;20.182;2024-02-14T10:32:35;3.55;;;1.67;;
75021;SDS011;63583;49.976;20.182;2024-02-14T10:35:06;3.55;;;1.60;;
75021;SDS011;63583;49.976;20.182;2024-02-14T10:37:37;3.40;;;1.70;;
75021;SDS011;63583;49.976;20.182;2024-02-14T10:40:03;3.80;;;1.58;;
75021;SDS011;63583;49.976;20.182;2024-02-14T10:42:33;3.38;;;1.52;;
75021;SDS011;63583;49.976;20.182;2024-02-14T10:44:59;4.05;;;1.67;;
75021;SDS011;63583;49.976;20.182;2024-02-14T10:47:32;5.15;;;1.98;;
75021;SDS011;63583;49.976;20.182;2024-02-14T10:50:01;3.15;;;1.70;;
75021;SDS011;63583;49.976;20.182;2024-02-14T10:52:31;3.88;;;1.50;;
75021;SDS011;63583;49.976;20.182;2024-02-14T10:55:04;3.33;;;1.92;;
75021;SDS011;63583;49.976;20.182;2024-02-14T10:57:34;3.17;;;1.58;;
75021;SDS011;63583;49.976;20.182;2024-02-14T11:00:06;3.30;;;1.33;;
75021;SDS011;63583;49.976;20.182;2024-02-14T11:02:35;4.95;;;1.70;;
75021;SDS011;63583;49.976;20.182;2024-02-14T11:05:03;3.25;;;1.70;;
75021;SDS011;63583;49.976;20.182;2024-02-14T11:07:29;3.92;;;1.42;;
75021;SDS011;63583;49.976;20.182;2024-02-14T11:12:33;3.42;;;1.45;;
75021;SDS011;63583;49.976;20.182;2024-02-14T11:15:25;3.55;;;1.50;;
75021;SDS011;63583;49.976;20.182;2024-02-14T11:17:50;3.60;;;1.52;;
75021;SDS011;63583;49.976;20.182;2024-02-14T11:20:19;3.00;;;1.50;;
75021;SDS011;63583;49.976;20.182;2024-02-14T11:22:52;3.28;;;1.73;;
75021;SDS011;63583;49.976;20.182;2024-02-14T11:25:21;4.70;;;1.85;;
75021;SDS011;63583;49.976;20.182;2024-02-14T11:27:48;4.03;;;1.83;;
75021;SDS011;63583;49.976;20.182;2024-02-14T11:30:14;3.85;;;1.80;;
75021;SDS011;63583;49.976;20.182;2024-02-14T11:32:42;3.83;;;1.65;;
75021;SDS011;63583;49.976;20.182;2024-02-14T11:35:10;4.18;;;1.73;;
75021;SDS011;63583;49.976;20.182;2024-02-14T11:37:37;4.88;;;2.38;;
75021;SDS011;63583;49.976;20.182;2024-02-14T11:40:02;3.15;;;1.60;;
75021;SDS011;63583;49.976;20.182;2024-02-14T11:42:28;3.10;;;1.80;;
75021;SDS011;63583;49.976;20.182;2024-02-14T11:44:54;2.95;;;1.58;;
75021;SDS011;63583;49.976;20.182;2024-02-14T11:47:22;4.10;;;1.60;;
75021;SDS011;63583;49.976;20.182;2024-02-14T11:49:48;4.13;;;1.58;;
75021;SDS011;63583;49.976;20.182;2024-02-14T11:52:14;2.60;;;1.50;;
75021;SDS011;63583;49.976;20.182;2024-02-14T11:54:40;3.63;;;1.52;;
75021;SDS011;63583;49.976;20.182;2024-02-14T11:57:16;3.85;;;1.60;;
75021;SDS011;63583;49.976;20.182;2024-02-14T11:59:43;2.72;;;1.60;;
75021;SDS011;63583;49.976;20.182;2024-02-14T12:02:12;4.22;;;1.50;;
75021;SDS011;63583;49.976;20.182;2024-02-14T12:04:38;3.60;;;2.10;;
75021;SDS011;63583;49.976;20.182;2024-02-14T12:07:04;3.58;;;2.00;;
75021;SDS011;63583;49.976;20.182;2024-02-14T12:09:30;3.85;;;1.98;;
75021;SDS011;63583;49.976;20.182;2024-02-14T12:11:56;2.83;;;1.55;;
75021;SDS011;63583;49.976;20.182;2024-02-14T12:14:26;3.65;;;1.60;;
75021;SDS011;63583;49.976;20.182;2024-02-14T12:17:00;3.45;;;1.30;;
75021;SDS011;63583;49.976;20.182;2024-02-14T12:19:28;3.67;;;1.50;;
75021;SDS011;63583;49.976;20.182;2024-02-14T12:21:54;3.53;;;1.63;;
75021;SDS011;63583;49.976;20.182;2024-02-14T12:24:24;4.38;;;1.70;;
75021;SDS011;63583;49.976;20.182;2024-02-14T12:26:54;2.38;;;1.48;;
75021;SDS011;63583;49.976;20.182;2024-02-14T12:29:20;2.72;;;1.33;;
75021;SDS011;63583;49.976;20.182;2024-02-14T12:31:48;4.18;;;2.28;;
75021;SDS011;63583;49.976;20.182;2024-02-14T12:34:14;3.65;;;1.70;;
75021;SDS011;63583;49.976;20.182;2024-02-14T12:36:40;3.97;;;1.50;;
75021;SDS011;63583;49.976;20.182;2024-02-14T12:39:06;3.22;;;1.40;;
75021;SDS011;63583;49.976;20.182;2024-02-14T12:41:32;3.92;;;1.48;;
75021;SDS011;63583;49.976;20.182;2024-02-14T12:44:00;3.20;;;1.65;;
75021;SDS011;63583;49.976;20.182;2024-02-14T12:46:26;4.55;;;1.70;;
75021;SDS011;63583;49.976;20.182;2024-02-14T12:48:52;4.05;;;1.75;;
75021;SDS011;63583;49.976;20.182;2024-02-14T12:51:19;3.28;;;1.80;;
75021;SDS011;63583;49.976;20.182;2024-02-14T12:53:44;4.60;;;1.60;;
75021;SDS011;63583;49.976;20.182;2024-02-14T12:56:11;3.85;;;2.00;;
75021;SDS011;63583;49.976;20.182;2024-02-14T12:58:37;3.28;;;1.90;;
75021;SDS011;63583;49.976;20.182;2024-02-14T13:01:03;2.90;;;1.65;;
75021;SDS011;63583;49.976;20.182;2024-02-14T13:03:31;3.03;;;1.60;;
75021;SDS011;63583;49.976;20.182;2024-02-14T13:05:59;3.53;;;1.70;;
75021;SDS011;63583;49.976;20.182;2024-02-14T13:08:25;4.85;;;2.00;;
75021;SDS011;63583;49.976;20.182;2024-02-14T13:10:52;4.28;;;2.10;;
75021;SDS011;63583;49.976;20.182;2024-02-14T13:13:18;3.38;;;1.67;;
75021;SDS011;63583;49.976;20.182;2024-02-14T13:15:44;3.70;;;1.95;;
75021;SDS011;63583;49.976;20.182;2024-02-14T13:18:10;4.13;;;1.88;;
75021;SDS011;63583;49.976;20.182;2024-02-14T13:20:36;3.28;;;1.70;;
75021;SDS011;63583;49.976;20.182;2024-02-14T13:23:03;4.57;;;1.77;;
75021;SDS011;63583;49.976;20.182;2024-02-14T13:25:29;6.35;;;1.83;;
75021;SDS011;63583;49.976;20.182;2024-02-14T13:27:55;3.50;;;1.65;;
75021;SDS011;63583;49.976;20.182;2024-02-14T13:30:21;5.25;;;2.00;;
75021;SDS011;63583;49.976;20.182;2024-02-14T13:32:47;4.75;;;2.05;;
75021;SDS011;63583;49.976;20.182;2024-02-14T13:35:13;3.58;;;1.95;;
75021;SDS011;63583;49.976;20.182;2024-02-14T13:37:39;7.00;;;2.20;;
75021;SDS011;63583;49.976;20.182;2024-02-14T13:40:05;4.00;;;2.00;;
75021;SDS011;63583;49.976;20.182;2024-02-14T13:42:36;4.88;;;1.73;;
75021;SDS011;63583;49.976;20.182;2024-02-14T13:45:04;3.72;;;1.85;;
75021;SDS011;63583;49.976;20.182;2024-02-14T13:47:35;5.93;;;2.00;;
75021;SDS011;63583;49.976;20.182;2024-02-14T13:50:07;6.50;;;2.00;;
75021;SDS011;63583;49.976;20.182;2024-02-14T13:52:34;4.03;;;2.15;;
75021;SDS011;63583;49.976;20.182;2024-02-14T13:55:01;4.25;;;1.90;;
75021;SDS011;63583;49.976;20.182;2024-02-14T13:57:28;4.65;;;2.35;;
75021;SDS011;63583;49.976;20.182;2024-02-14T13:59:55;5.93;;;1.80;;
75021;SDS011;63583;49.976;20.182;2024-02-14T14:02:21;4.32;;;1.95;;
75021;SDS011;63583;49.976;20.182;2024-02-14T14:04:48;3.65;;;2.10;;
75021;SDS011;63583;49.976;20.182;2024-02-14T14:07:14;4.53;;;2.22;;
75021;SDS011;63583;49.976;20.182;2024-02-14T14:09:40;3.53;;;1.90;;
75021;SDS011;63583;49.976;20.182;2024-02-14T14:12:06;3.85;;;2.05;;
75021;SDS011;63583;49.976;20.182;2024-02-14T14:14:32;4.93;;;2.20;;
75021;SDS011;63583;49.976;20.182;2024-02-14T14:16:57;4.55;;;2.35;;
75021;SDS011;63583;49.976;20.182;2024-02-14T14:19:23;5.65;;;2.47;;
75021;SDS011;63583;49.976;20.182;2024-02-14T14:21:49;5.60;;;2.67;;
75021;SDS011;63583;49.976;20.182;2024-02-14T14:24:15;5.18;;;3.00;;
75021;SDS011;63583;49.976;20.182;2024-02-14T14:26:41;5.13;;;3.10;;